Time;durP1;ratioP1;P1;durP2;ratioP2;P2;SDS_P1;SDS_P2;PMS_P1;PMS_P2;Temp;Humidity;BMP_temperature;BMP_pressure;BME280_temperature;BME280_humidity;BME280_pressure;Samples;Min_cycle;Max_cycle;Signal;HPM_P1;HPM_P2
2021/12/19 00:01:12;;;;;;;;;12.25;9.50;;;;;21.31;35.51;102955.78;5057025;28;45394;-66
2021/12/19 00:09:05;;;;;;;;;11.50;10.50;;;;;21.26;35.71;102943.63;5056872;28;45753;-68
2021/12/19 00:11:31;;;;;;;;;14.75;12.75;;;;;21.27;35.44;102938.28;5056732;28;45312;-69
2021/12/19 00:13:59;;;;;;;;;11.00;11.00;;;;;21.26;35.69;102943.63;5038938;28;45442;-66
2021/12/19 00:16:25;;;;;;;;;11.75;9.00;;;;;21.23;35.53;102939.25;5039114;28;45230;-68
2021/12/19 00:18:52;;;;;;;;;12.25;9.50;;;;;21.23;35.81;102933.13;5056586;28;45351;-68
2021/12/19 00:21:19;;;;;;;;;10.75;10.25;;;;;21.20;35.41;102926.19;5038676;28;45762;-68
2021/12/19 00:23:47;;;;;;;;;12.25;12.25;;;;;21.18;35.53;102917.44;5056964;28;45346;-69
2021/12/19 00:26:13;;;;;;;;;15.50;14.50;;;;;21.18;35.54;102917.44;5056823;28;45230;-66
2021/12/19 00:28:39;;;;;;;;;13.50;11.75;;;;;21.15;35.44;102913.13;5056505;28;45356;-67
2021/12/19 00:31:05;;;;;;;;;11.00;10.25;;;;;21.17;35.52;102920.97;5056889;28;45316;-69
2021/12/19 00:33:31;;;;;;;;;10.75;10.00;;;;;21.15;35.63;102921.03;5056690;28;45340;-66
2021/12/19 00:35:58;;;;;;;;;10.75;10.00;;;;;21.15;35.82;102921.03;5056822;28;45469;-65
2021/12/19 00:38:24;;;;;;;;;11.25;11.25;;;;;21.13;35.54;102908.75;5056410;28;46436;-68
2021/12/19 00:40:50;;;;;;;;;9.25;9.25;;;;;21.10;35.77;102900.94;5056455;28;46033;-69
2021/12/19 00:43:34;;;;;;;;;10.00;8.25;;;;;21.09;36.02;102904.50;5056428;28;45577;-67
2021/12/19 00:46:07;;;;;;;;;14.00;11.50;;;;;21.09;35.52;102907.97;5055721;28;45502;-68
2021/12/19 00:48:34;;;;;;;;;9.25;8.50;;;;;21.06;35.87;102899.28;5056368;28;45370;-71
2021/12/19 00:50:59;;;;;;;;;8.25;7.00;;;;;21.06;35.31;102904.56;5056435;28;45943;-66
2021/12/19 00:53:25;;;;;;;;;11.00;7.50;;;;;21.03;36.02;102899.34;5056231;28;45392;-66
2021/12/19 00:55:50;;;;;;;;;9.75;9.75;;;;;21.05;35.79;102902.81;5056581;28;45237;-67
2021/12/19 00:58:16;;;;;;;;;10.25;9.25;;;;;21.04;35.46;102896.69;5056262;28;45600;-69
2021/12/19 01:00:41;;;;;;;;;10.50;10.50;;;;;21.01;35.58;102892.34;5056139;28;45232;-68
2021/12/19 01:03:07;;;;;;;;;8.25;8.00;;;;;21.00;35.86;102890.59;5056608;28;45363;-68
2021/12/19 01:05:36;;;;;;;;;9.00;9.00;;;;;20.99;35.67;102886.28;5056515;28;45281;-67
2021/12/19 01:08:03;;;;;;;;;11.00;11.00;;;;;20.99;35.52;102883.63;5055656;28;46594;-69
2021/12/19 01:10:29;;;;;;;;;11.50;11.25;;;;;20.98;35.43;102887.16;5056152;28;46015;-69
2021/12/19 01:12:54;;;;;;;;;11.00;10.75;;;;;20.96;35.89;102886.34;5056113;28;45430;-70
2021/12/19 01:15:20;;;;;;;;;9.00;9.00;;;;;20.97;35.78;102887.19;5056218;28;45316;-69
2021/12/19 01:17:45;;;;;;;;;13.50;10.50;;;;;20.94;35.51;102885.50;5055964;28;46541;-69
2021/12/19 01:20:20;;;;;;;;;10.00;9.25;;;;;20.94;35.87;102887.28;5055904;28;45338;-68
2021/12/19 01:22:46;;;;;;;;;10.50;10.50;;;;;20.93;35.96;102889.03;5056042;28;45512;-67
2021/12/19 01:25:12;;;;;;;;;11.00;9.00;;;;;20.95;35.65;102887.22;5038152;28;45539;-68
2021/12/19 01:27:38;;;;;;;;;9.50;8.75;;;;;20.94;36.11;102882.88;5056171;28;46536;-66
2021/12/19 01:30:06;;;;;;;;;11.75;9.00;;;;;20.91;35.65;102885.56;5055654;28;45253;-69
2021/12/19 01:32:32;;;;;;;;;12.25;10.25;;;;;20.92;35.77;102886.44;5055916;28;45386;-69
2021/12/19 01:34:57;;;;;;;;;15.50;11.00;;;;;20.91;35.80;102884.72;5038051;28;45593;-68
2021/12/19 01:37:23;;;;;;;;;6.50;6.00;;;;;20.90;35.73;102886.47;5055507;28;51499;-69
2021/12/19 01:39:48;;;;;;;;;10.75;9.50;;;;;20.88;35.68;102875.13;5037708;28;45702;-67
2021/12/19 01:42:17;;;;;;;;;10.25;8.00;;;;;20.89;35.86;102881.25;5055852;28;45823;-67
2021/12/19 01:44:44;;;;;;;;;13.00;9.00;;;;;20.87;35.43;102878.66;5055952;28;45454;-69
2021/12/19 01:47:10;;;;;;;;;6.75;6.50;;;;;20.88;36.12;102880.38;5055815;28;46318;-69
2021/12/19 01:49:35;;;;;;;;;11.25;9.50;;;;;20.84;35.70;102876.94;5037576;28;45470;-69
2021/12/19 01:52:01;;;;;;;;;10.75;9.00;;;;;20.85;35.68;102876.03;5055607;28;45369;-70
2021/12/19 01:54:27;;;;;;;;;12.00;9.75;;;;;20.85;35.57;102877.81;5055702;28;45576;-70
2021/12/19 01:56:52;;;;;;;;;7.25;7.00;;;;;20.82;35.56;102869.97;5055790;28;46703;-67
2021/12/19 01:59:18;;;;;;;;;9.00;9.00;;;;;20.84;36.10;102874.31;5058838;28;45277;-68
2021/12/19 02:01:51;;;;;;;;;10.75;9.00;;;;;20.83;36.14;102871.72;5059058;28;45339;-64
2021/12/19 02:04:18;;;;;;;;;8.00;6.50;;;;;20.81;35.47;102862.97;5059088;28;45442;-65
2021/12/19 02:06:44;;;;;;;;;9.00;7.75;;;;;20.81;35.93;102868.25;5058692;28;46649;-68
2021/12/19 02:09:10;;;;;;;;;9.75;8.75;;;;;20.81;36.10;102868.25;5059095;28;45360;-68
2021/12/19 02:11:38;;;;;;;;;9.50;7.25;;;;;20.79;35.86;102865.66;5058863;28;45217;-66
2021/12/19 02:14:05;;;;;;;;;7.50;6.50;;;;;20.81;35.92;102860.34;5059009;28;45237;-69
2021/12/19 02:16:31;;;;;;;;;9.75;7.00;;;;;20.79;35.90;102854.22;5058594;28;45629;-68
2021/12/19 02:18:58;;;;;;;;;10.25;7.00;;;;;20.84;36.45;102862.91;5040592;28;45385;-66
2021/12/19 02:21:24;;;;;;;;;8.25;7.00;;;;;20.81;36.29;102842.78;5058792;28;45454;-68
2021/12/19 02:23:49;;;;;;;;;7.75;6.25;;;;;20.91;36.41;102853.09;5058743;28;45268;-67
2021/12/19 02:26:15;;;;;;;;;7.00;6.50;;;;;20.94;35.83;102853.88;5058390;28;45369;-65
2021/12/19 02:28:41;;;;;;;;;7.50;6.00;;;;;21.00;36.41;102848.44;5058726;28;45303;-68
2021/12/19 02:31:06;;;;;;;;;10.50;7.00;;;;;21.05;36.19;102845.69;5058643;28;45324;-69
2021/12/19 02:33:37;;;;;;;;;9.75;7.75;;;;;21.09;36.17;102851.75;5058630;28;45180;-68
2021/12/19 02:49:31;;;;;;;;;7.00;6.00;;;;;21.35;35.71;102837.00;5058063;28;45740;-67
2021/12/19 02:51:57;;;;;;;;;8.00;6.25;;;;;21.39;35.71;102833.38;5058331;28;45289;-69
2021/12/19 02:54:25;;;;;;;;;8.50;7.00;;;;;21.43;36.05;102829.75;5058158;28;45569;-69
2021/12/19 02:56:51;;;;;;;;;5.00;4.00;;;;;21.45;35.80;102822.66;5039882;28;47683;-68
2021/12/19 02:59:17;;;;;;;;;5.75;5.75;;;;;21.47;35.70;102826.09;5039964;28;45862;-69
2021/12/19 03:01:44;;;;;;;;;8.00;6.50;;;;;21.50;35.68;102819.91;5058796;28;45359;-69
2021/12/19 03:04:11;;;;;;;;;5.25;5.00;;;;;21.51;35.58;102816.34;5058440;28;45535;-69
2021/12/19 03:06:43;;;;;;;;;6.00;6.00;;;;;21.53;35.87;102825.97;5057805;28;46507;-69
2021/12/19 03:09:10;;;;;;;;;9.50;6.50;;;;;21.55;35.89;102818.00;5038912;28;45847;-68
2021/12/19 03:19:49;;;;;;;;;5.75;5.00;;;;;21.57;35.81;102806.47;5057731;28;45329;-69
2021/12/19 03:22:14;;;;;;;;;5.25;5.00;;;;;21.57;35.81;102803.84;5058110;28;45357;-69
2021/12/19 03:24:39;;;;;;;;;7.00;6.25;;;;;21.57;35.89;102797.72;5057898;28;45387;-69
2021/12/19 03:27:05;;;;;;;;;6.75;6.75;;;;;21.54;35.54;102796.03;5057532;28;46442;-69
2021/12/19 03:29:30;;;;;;;;;5.50;5.50;;;;;21.55;35.50;102803.00;5057555;28;45292;-69
2021/12/19 03:31:55;;;;;;;;;6.00;4.25;;;;;21.55;35.57;102799.50;5057622;28;45292;-69
2021/12/19 03:34:21;;;;;;;;;4.00;3.25;;;;;21.56;35.23;102804.75;5057878;28;45565;-69
2021/12/19 03:36:47;;;;;;;;;6.50;5.00;;;;;21.54;35.70;102806.59;5057477;28;45437;-67
2021/12/19 03:39:24;;;;;;;;;4.50;4.50;;;;;21.54;35.66;102808.34;5057478;28;45225;-69
2021/12/19 03:41:50;;;;;;;;;5.00;5.00;;;;;21.51;35.93;102798.75;5057285;28;45227;-69
2021/12/19 03:44:15;;;;;;;;;4.00;4.00;;;;;21.50;35.94;102794.38;5057942;28;45315;-69
2021/12/19 03:46:41;;;;;;;;;8.50;6.75;;;;;21.50;35.59;102791.72;5039366;28;47659;-67
2021/12/19 03:49:06;;;;;;;;;6.00;5.25;;;;;21.51;35.68;102804.03;5057321;28;45403;-68
2021/12/19 03:51:31;;;;;;;;;6.25;4.50;;;;;21.49;35.65;102808.47;5057261;28;45304;-68
2021/12/19 03:53:57;;;;;;;;;4.00;3.00;;;;;21.48;35.56;102806.75;5039411;28;45422;-66
2021/12/19 03:56:22;;;;;;;;;5.25;5.25;;;;;21.48;35.72;102814.66;5056959;28;46700;-66
2021/12/19 03:58:47;;;;;;;;;5.75;5.50;;;;;21.47;35.44;102805.00;5057077;28;45299;-66
2021/12/19 04:01:13;;;;;;;;;5.50;5.50;;;;;21.47;35.28;102805.00;5057453;28;45327;-66
2021/12/19 04:03:40;;;;;;;;;5.75;5.75;;;;;21.46;35.34;102805.91;5057333;28;45293;-65
2021/12/19 04:06:06;;;;;;;;;5.25;5.00;;;;;21.44;35.39;102797.19;5056957;28;45624;-66
2021/12/19 04:08:31;;;;;;;;;4.00;3.00;;;;;21.42;35.22;102797.22;5056772;28;45328;-67
2021/12/19 04:10:56;;;;;;;;;6.00;4.25;;;;;21.42;35.58;102801.66;5056940;28;45315;-67
2021/12/19 04:13:23;;;;;;;;;5.75;5.75;;;;;21.41;35.85;102806.03;5057070;28;45487;-68
2021/12/19 04:15:49;;;;;;;;;6.00;6.00;;;;;21.40;35.67;102792.91;5056826;28;47474;-69
2021/12/19 04:18:16;;;;;;;;;7.75;5.00;;;;;21.40;35.69;102801.66;5057146;28;45874;-69
2021/12/19 04:20:41;;;;;;;;;6.25;6.00;;;;;21.39;35.57;102797.28;5056641;28;45435;-67
2021/12/19 04:23:06;;;;;;;;;7.00;6.00;;;;;21.38;35.20;102789.44;5056998;28;45485;-66
2021/12/19 04:25:32;;;;;;;;;5.00;5.00;;;;;21.35;35.19;102781.59;5056689;28;46425;-65
2021/12/19 04:27:58;;;;;;;;;6.25;4.00;;;;;21.35;35.48;102785.13;5056734;28;45378;-66
2021/12/19 04:30:25;;;;;;;;;5.75;4.75;;;;;21.33;35.66;102781.66;5056908;28;45316;-68
2021/12/19 04:33:01;;;;;;;;;5.25;4.00;;;;;21.33;35.54;102780.81;5056672;28;45285;-67
2021/12/19 04:35:31;;;;;;;;;4.25;4.25;;;;;21.33;35.22;102783.44;5056402;28;47191;-66
2021/12/19 04:40:50;;;;;;;;;3.75;3.00;;;;;21.27;35.74;102764.22;5056528;28;45222;-69
2021/12/19 04:59:35;;;;;;;;;4.75;3.75;;;;;21.17;35.43;102763.59;5056144;28;45247;-68
2021/12/19 05:15:37;;;;;;;;;5.00;4.25;;;;;21.07;35.78;102748.09;5056128;28;45501;-69
2021/12/19 05:18:06;;;;;;;;;4.75;4.25;;;;;21.09;35.91;102762.13;5056017;28;45456;-68
2021/12/19 05:20:33;;;;;;;;;4.00;3.50;;;;;21.07;35.34;102753.38;5055908;28;45269;-68
2021/12/19 05:23:25;;;;;;;;;4.00;4.00;;;;;21.07;35.71;102758.66;5056126;28;45264;-68
2021/12/19 05:25:52;;;;;;;;;6.00;4.00;;;;;21.05;35.79;102761.34;5056285;28;45335;-68
2021/12/19 05:28:17;;;;;;;;;5.00;3.50;;;;;21.03;35.90;102757.00;5056083;28;45343;-70
2021/12/19 05:30:42;;;;;;;;;3.50;3.50;;;;;21.02;35.50;102753.50;5055868;28;45402;-70
2021/12/19 05:33:08;;;;;;;;;6.50;5.00;;;;;21.03;35.51;102757.00;5058206;28;45442;-67
2021/12/19 05:36:05;;;;;;;;;5.75;3.00;;;;;20.97;35.54;102743.09;5059451;28;45307;-69
2021/12/19 05:46:23;;;;;;;;;5.25;5.25;;;;;21.03;35.70;102746.44;5059615;28;45360;-66
2021/12/19 05:48:49;;;;;;;;;3.50;3.50;;;;;21.06;36.28;102751.63;5041489;28;48368;-68
2021/12/19 05:51:14;;;;;;;;;5.00;4.00;;;;;21.06;35.98;102749.84;5059159;28;45280;-66
2021/12/19 05:53:39;;;;;;;;;5.00;4.50;;;;;21.06;35.71;102741.94;5059153;28;45400;-64
2021/12/19 05:56:05;;;;;;;;;8.00;6.00;;;;;21.05;35.65;102749.91;5059405;28;45542;-62
2021/12/19 05:58:30;;;;;;;;;7.00;7.00;;;;;21.03;36.05;102741.16;5058810;28;46462;-64
2021/12/19 06:00:56;;;;;;;;;8.00;6.75;;;;;21.03;35.92;102738.53;5058834;28;45397;-63
2021/12/19 06:03:21;;;;;;;;;8.25;7.00;;;;;21.01;35.37;102749.13;5059413;28;45396;-63
2021/12/19 06:05:47;;;;;;;;;7.00;5.75;;;;;21.00;35.21;102742.13;5059213;28;45364;-65
2021/12/19 06:08:13;;;;;;;;;9.75;7.00;;;;;20.97;35.18;102737.81;5058538;28;46244;-64
2021/12/19 06:10:38;;;;;;;;;6.00;6.00;;;;;20.94;35.27;102732.63;5058773;28;45845;-64
2021/12/19 06:13:04;;;;;;;;;8.25;7.25;;;;;20.91;35.48;102743.22;5040741;28;45414;-66
2021/12/19 06:15:29;;;;;;;;;8.00;6.50;;;;;20.89;34.96;102747.66;5058904;28;45469;-63
2021/12/19 06:17:54;;;;;;;;;6.75;6.75;;;;;20.85;34.92;102743.41;5058481;28;46008;-63
2021/12/19 06:20:21;;;;;;;;;7.50;7.50;;;;;20.80;35.08;102740.91;5040875;28;45797;-62
2021/12/19 06:22:46;;;;;;;;;7.00;4.75;;;;;20.74;35.49;102732.25;5058632;28;45244;-62
2021/12/19 06:25:11;;;;;;;;;6.00;6.00;;;;;20.69;35.46;102735.84;5058807;28;45553;-62
2021/12/19 06:27:37;;;;;;;;;4.25;4.25;;;;;20.65;35.17;102744.75;5040254;28;46977;-67
2021/12/19 06:30:05;;;;;;;;;5.50;5.00;;;;;20.60;35.13;102733.47;5058378;28;45377;-64
2021/12/19 06:32:31;;;;;;;;;6.50;5.25;;;;;20.54;35.81;102736.28;5058573;28;45389;-68
2021/12/19 06:34:59;;;;;;;;;6.25;6.00;;;;;20.51;35.33;102738.97;5058612;28;45349;-67
2021/12/19 06:37:24;;;;;;;;;5.25;5.25;;;;;20.48;35.60;102739.03;5058546;28;45498;-66
2021/12/19 06:39:49;;;;;;;;;6.00;5.75;;;;;20.47;35.26;102734.66;5058228;28;45359;-68
2021/12/19 06:42:15;;;;;;;;;6.00;4.00;;;;;20.43;35.83;102738.31;5058541;28;45364;-69
2021/12/19 06:44:41;;;;;;;;;4.00;3.25;;;;;20.42;35.38;102744.47;5057412;28;45546;-64
2021/12/19 06:47:07;;;;;;;;;5.00;5.00;;;;;20.40;35.62;102736.59;5058007;28;45535;-66
2021/12/19 06:49:32;;;;;;;;;7.25;5.00;;;;;20.35;35.79;102725.31;5057989;28;45214;-64
2021/12/19 06:51:58;;;;;;;;;7.75;6.00;;;;;20.34;35.46;102731.47;5058177;28;45498;-67
2021/12/19 06:54:23;;;;;;;;;5.50;5.00;;;;;20.33;35.80;102730.63;5058605;28;45346;-65
2021/12/19 06:56:48;;;;;;;;;6.25;5.75;;;;;20.31;35.75;102731.56;5057994;28;45275;-66
2021/12/19 06:59:14;;;;;;;;;7.50;5.25;;;;;20.29;35.43;102736.88;5057841;28;45344;-68
2021/12/19 07:01:40;;;;;;;;;5.50;4.75;;;;;20.25;35.91;102729.94;5058052;28;45316;-64
2021/12/19 07:04:05;;;;;;;;;7.50;7.50;;;;;20.28;35.48;102743.03;5058237;28;45236;-64
2021/12/19 07:06:30;;;;;;;;;8.50;7.00;;;;;20.26;35.97;102743.97;5057673;28;47415;-62
2021/12/19 07:08:56;;;;;;;;;9.00;6.75;;;;;20.24;35.89;102749.25;5057863;28;45542;-64
2021/12/19 07:11:22;;;;;;;;;6.00;5.00;;;;;20.21;36.12;102744.94;5057862;28;45442;-70
2021/12/19 07:13:47;;;;;;;;;9.75;6.25;;;;;20.19;36.10;102744.09;5039822;28;45370;-69
2021/12/19 07:16:13;;;;;;;;;1.75;1.00;;;;;20.18;35.98;102744.16;5057579;28;46836;-69
2021/12/19 07:18:38;;;;;;;;;4.50;4.50;;;;;20.14;35.67;102737.22;5057714;28;45365;-71
2021/12/19 07:21:05;;;;;;;;;6.00;5.00;;;;;20.16;35.74;102743.31;5057764;28;45430;-71
2021/12/19 07:23:30;;;;;;;;;6.25;5.00;;;;;20.14;35.55;102742.47;5057910;28;45373;-69
2021/12/19 07:25:56;;;;;;;;;6.25;5.00;;;;;20.14;35.96;102742.47;5057801;28;45365;-71
2021/12/19 07:28:21;;;;;;;;;6.00;6.00;;;;;20.10;36.08;102744.31;5057435;28;45333;-68
2021/12/19 07:30:47;;;;;;;;;4.75;3.75;;;;;20.07;35.93;102734.75;5057533;28;45365;-69
2021/12/19 07:33:12;;;;;;;;;5.75;4.75;;;;;20.07;35.64;102731.22;5057657;28;45305;-69
2021/12/19 07:35:42;;;;;;;;;6.75;4.75;;;;;20.08;36.23;102739.09;5057304;28;46184;-70
2021/12/19 07:38:10;;;;;;;;;5.75;5.00;;;;;20.03;36.09;102727.81;5057289;28;46052;-72
2021/12/19 07:40:36;;;;;;;;;5.50;5.00;;;;;20.02;35.67;102726.06;5057396;28;45412;-71
2021/12/19 07:43:11;;;;;;;;;5.50;4.00;;;;;19.99;35.79;102726.16;5057557;28;45387;-71
2021/12/19 07:45:37;;;;;;;;;4.75;4.25;;;;;19.95;36.03;102732.38;5057266;28;45306;-68
2021/12/19 07:48:04;;;;;;;;;5.00;4.00;;;;;19.89;36.11;102725.50;5057313;28;45269;-70
2021/12/19 07:50:30;;;;;;;;;4.75;3.75;;;;;19.92;36.16;102735.09;5057649;28;45241;-66
2021/12/19 07:52:57;;;;;;;;;5.00;4.25;;;;;19.91;35.79;102730.72;5057726;28;45651;-69
2021/12/19 07:55:23;;;;;;;;;6.25;4.00;;;;;19.89;36.32;102725.50;5056555;28;46220;-68
2021/12/19 07:57:49;;;;;;;;;3.25;3.25;;;;;19.88;36.22;102730.81;5057048;28;45419;-68
2021/12/19 08:00:16;;;;;;;;;5.00;5.00;;;;;19.85;35.79;102739.56;5057052;28;45426;-66
2021/12/19 08:02:43;;;;;;;;;3.50;2.75;;;;;19.82;35.98;102729.16;5057283;28;45348;-68
2021/12/19 08:05:09;;;;;;;;;3.75;3.75;;;;;19.82;36.29;102734.41;5038800;28;47546;-68
2021/12/19 08:07:34;;;;;;;;;7.00;4.00;;;;;19.79;35.63;102731.84;5056693;28;45328;-69
2021/12/19 08:12:46;;;;;;;;;2.25;2.25;;;;;19.76;36.44;102735.41;5015828;28;45439;-69
2021/12/19 08:15:12;;;;;;;;;4.75;3.50;;;;;19.77;36.26;102737.16;5056732;28;45434;-66
2021/12/19 08:17:38;;;;;;;;;4.00;3.75;;;;;19.77;35.93;102737.16;5056701;28;45308;-69
2021/12/19 08:20:06;;;;;;;;;3.00;3.00;;;;;19.77;36.00;102741.53;5038839;28;45352;-66
2021/12/19 08:22:32;;;;;;;;;5.00;3.25;;;;;19.75;35.92;102728.41;5056955;28;45249;-69
2021/12/19 08:24:57;;;;;;;;;2.75;2.75;;;;;19.77;35.84;102728.38;5038901;28;48465;-69
2021/12/19 08:27:25;;;;;;;;;3.50;3.50;;;;;19.74;35.93;102734.56;5038563;28;45521;-69
2021/12/19 08:29:53;;;;;;;;;5.00;3.00;;;;;19.75;36.22;102735.41;5056568;28;45258;-69
2021/12/19 08:32:19;;;;;;;;;4.25;2.75;;;;;19.74;36.17;102723.16;5056765;28;45514;-67
2021/12/19 08:34:45;;;;;;;;;5.00;4.00;;;;;19.74;35.89;102736.31;5056286;28;45483;-70
2021/12/19 08:37:10;;;;;;;;;2.25;2.25;;;;;19.74;36.13;102724.03;5056369;28;45362;-69
2021/12/19 08:39:38;;;;;;;;;3.25;3.25;;;;;19.73;36.38;102724.09;5038380;28;45359;-69
2021/12/19 08:42:06;;;;;;;;;2.25;2.25;;;;;19.75;36.15;102723.16;5056774;28;45410;-68
2021/12/19 08:44:32;;;;;;;;;3.75;3.75;;;;;19.73;36.01;102719.69;5056198;28;46179;-64
2021/12/19 08:46:57;;;;;;;;;5.00;5.00;;;;;19.73;36.23;102724.94;5038762;28;45435;-68
2021/12/19 08:49:22;;;;;;;;;4.00;3.00;;;;;19.73;36.07;102724.94;5056487;28;45284;-66
2021/12/19 08:51:48;;;;;;;;;3.75;3.25;;;;;19.71;36.20;102726.72;5056543;28;45632;-65
2021/12/19 08:54:13;;;;;;;;;5.00;4.25;;;;;19.71;36.04;102713.59;5056171;28;45507;-70
2021/12/19 08:56:39;;;;;;;;;3.00;3.00;;;;;19.71;36.04;102731.16;5056226;28;45331;-66
2021/12/19 08:59:05;;;;;;;;;4.00;4.00;;;;;19.72;36.05;102732.88;5056398;28;45347;-67
2021/12/19 09:01:31;;;;;;;;;2.75;2.75;;;;;19.70;36.34;102730.25;5056784;28;45435;-66
2021/12/19 09:03:57;;;;;;;;;3.00;3.00;;;;;19.68;36.20;102729.44;5056411;28;46339;-70
2021/12/19 09:06:23;;;;;;;;;5.75;4.00;;;;;19.68;36.10;102734.69;5056100;28;45288;-67
2021/12/19 09:08:48;;;;;;;;;5.25;3.50;;;;;19.67;36.11;102734.72;5059245;28;45242;-66
2021/12/19 09:11:14;;;;;;;;;2.75;2.75;;;;;19.66;36.32;102739.13;5041922;28;45521;-66
2021/12/19 09:13:39;;;;;;;;;4.00;4.00;;;;;19.65;36.37;102734.78;5059568;28;46154;-66
2021/12/19 09:16:05;;;;;;;;;3.00;3.00;;;;;19.62;36.01;102727.78;5059845;28;45244;-64
2021/12/19 09:18:33;;;;;;;;;3.00;3.00;;;;;19.63;36.07;102734.78;5060250;28;45333;-64
2021/12/19 09:20:59;;;;;;;;;3.25;3.00;;;;;19.63;36.07;102739.19;5042205;28;45528;-65
2021/12/19 09:23:25;;;;;;;;;5.00;4.00;;;;;19.59;36.19;102732.25;5059473;28;45488;-69
2021/12/19 09:25:50;;;;;;;;;4.00;4.00;;;;;19.57;35.99;102720.91;5041279;28;45281;-67
2021/12/19 09:28:17;;;;;;;;;5.75;4.00;;;;;19.58;36.10;102725.25;5059492;28;45365;-69
2021/12/19 09:30:43;;;;;;;;;5.75;4.00;;;;;19.56;36.01;102719.19;5041795;28;45613;-66
2021/12/19 09:33:09;;;;;;;;;7.75;6.25;;;;;19.57;35.78;102723.53;5059178;28;45787;-67
2021/12/19 09:35:35;;;;;;;;;3.00;3.00;;;;;19.56;36.12;102722.69;5059420;28;45229;-67
2021/12/19 09:38:02;;;;;;;;;8.25;5.25;;;;;19.55;35.84;102730.59;5041619;28;45288;-69
2021/12/19 09:40:37;;;;;;;;;6.75;4.25;;;;;19.51;35.88;102719.28;5059698;28;45653;-68
2021/12/19 09:43:08;;;;;;;;;6.25;4.00;;;;;19.46;35.88;102722.00;5059409;28;46098;-65
2021/12/19 09:45:34;;;;;;;;;4.50;3.25;;;;;19.49;36.14;102725.47;5041482;28;45737;-64
2021/12/19 09:48:00;;;;;;;;;5.25;4.00;;;;;19.47;36.00;102725.50;5041458;28;45450;-65
2021/12/19 09:50:26;;;;;;;;;4.00;3.00;;;;;19.42;36.01;102725.59;5041229;28;45255;-67
2021/12/19 09:52:52;;;;;;;;;6.75;6.50;;;;;19.43;35.96;102722.06;5058978;28;45723;-66
2021/12/19 09:55:22;;;;;;;;;5.00;4.00;;;;;19.39;36.23;102720.41;5040799;28;45457;-65
2021/12/19 09:57:53;;;;;;;;;4.00;4.00;;;;;19.42;36.02;102719.47;5059034;28;45261;-70
2021/12/19 10:00:20;;;;;;;;;3.25;3.00;;;;;19.40;35.88;102716.88;5059142;28;45308;-66
2021/12/19 10:02:48;;;;;;;;;8.25;5.75;;;;;19.39;35.81;102720.41;5059054;28;46210;-62
2021/12/19 10:05:20;;;;;;;;;6.75;6.00;;;;;19.37;35.95;102706.41;5040923;28;45905;-65
2021/12/19 10:07:57;;;;;;;;;6.00;4.25;;;;;19.36;35.84;102709.94;5040898;28;45577;-67
2021/12/19 10:10:55;;;;;;;;;5.75;5.00;;;;;19.36;35.75;102712.56;5041163;28;45258;-65
2021/12/19 10:13:36;;;;;;;;;4.00;4.00;;;;;19.32;35.81;102703.03;5058415;28;46454;-66
2021/12/19 10:16:24;;;;;;;;;3.75;3.75;;;;;19.33;35.94;102701.25;5058949;28;45248;-65
2021/12/19 10:18:55;;;;;;;;;3.50;3.00;;;;;19.28;35.93;102693.47;5058791;28;45233;-65
2021/12/19 10:21:21;;;;;;;;;6.00;4.25;;;;;19.32;36.26;102695.13;5058859;28;45340;-66
2021/12/19 10:23:48;;;;;;;;;5.00;5.00;;;;;19.31;36.22;102698.66;5058530;28;45312;-60
2021/12/19 10:26:13;;;;;;;;;5.75;5.00;;;;;19.30;35.86;102691.66;5058550;28;45744;-62
2021/12/19 10:28:54;;;;;;;;;3.75;3.75;;;;;19.25;36.21;102693.50;5058693;28;45262;-64
2021/12/19 10:31:20;;;;;;;;;8.00;5.00;;;;;19.26;35.93;102687.34;5058761;28;45518;-63
2021/12/19 10:33:47;;;;;;;;;6.75;5.75;;;;;19.23;35.58;102692.69;5058335;28;45550;-67
2021/12/19 10:36:14;;;;;;;;;5.50;4.25;;;;;19.19;36.19;102683.13;5058430;28;45372;-63
2021/12/19 10:38:50;;;;;;;;;6.00;4.00;;;;;19.21;36.25;102694.50;5040421;28;45250;-63
2021/12/19 10:41:30;;;;;;;;;5.00;5.00;;;;;19.24;35.88;102692.66;5058508;28;45316;-65
2021/12/19 10:44:04;;;;;;;;;6.00;6.00;;;;;19.26;36.02;102687.34;5058019;28;45564;-63
2021/12/19 10:46:37;;;;;;;;;5.50;4.75;;;;;19.33;35.80;102691.63;5058297;28;45404;-63
2021/12/19 10:49:04;;;;;;;;;7.00;5.25;;;;;19.40;35.80;102697.63;5040318;28;45354;-64
2021/12/19 10:51:36;;;;;;;;;7.25;7.25;;;;;19.42;35.41;102688.78;5058485;28;45416;-65
2021/12/19 10:54:04;;;;;;;;;9.00;5.00;;;;;19.52;35.65;102683.31;5039682;28;48599;-62
2021/12/19 10:56:35;;;;;;;;;10.00;7.00;;;;;19.56;35.43;102685.00;5058165;28;45744;-65
2021/12/19 10:59:06;;;;;;;;;6.75;6.75;;;;;19.63;34.98;102676.06;5058321;28;45215;-63
2021/12/19 11:01:37;;;;;;;;;5.00;5.00;;;;;19.67;34.96;102672.47;5058258;28;45640;-65
2021/12/19 11:04:12;;;;;;;;;6.25;6.25;;;;;19.73;35.19;102674.09;5040294;28;45689;-65
2021/12/19 11:06:38;;;;;;;;;7.50;7.00;;;;;19.74;34.73;102660.91;5058041;28;45366;-65
2021/12/19 11:09:14;;;;;;;;;7.50;7.50;;;;;19.82;34.54;102666.00;5057964;28;45380;-63
2021/12/19 11:11:54;;;;;;;;;5.00;5.00;;;;;19.87;35.15;102663.28;5058219;28;45394;-65
2021/12/19 11:14:33;;;;;;;;;5.25;5.25;;;;;19.93;34.52;102668.38;5057499;28;45315;-64
2021/12/19 11:17:05;;;;;;;;;8.00;8.00;;;;;19.96;34.87;102663.06;5057772;28;45832;-65
2021/12/19 11:19:31;;;;;;;;;7.00;7.00;;;;;20.00;34.45;102664.72;5057695;28;45451;-65
2021/12/19 11:21:57;;;;;;;;;7.00;7.00;;;;;20.03;34.52;102654.09;5057963;28;45450;-66
2021/12/19 11:24:24;;;;;;;;;7.00;7.00;;;;;20.06;34.69;102648.78;5057460;28;46097;-63
2021/12/19 11:26:54;;;;;;;;;7.00;6.50;;;;;20.10;34.33;102643.44;5057692;28;45969;-65
2021/12/19 11:29:20;;;;;;;;;6.00;6.00;;;;;20.13;34.05;102632.81;5057354;28;45236;-63
2021/12/19 11:31:51;;;;;;;;;3.75;3.75;;;;;20.17;34.02;102632.72;5057595;28;45245;-63
2021/12/19 11:34:20;;;;;;;;;8.25;8.25;;;;;20.22;34.50;102635.25;5057336;28;45549;-69
2021/12/19 11:36:57;;;;;;;;;7.00;6.00;;;;;20.24;33.96;102630.78;5039310;28;45379;-70
2021/12/19 11:39:29;;;;;;;;;7.00;6.00;;;;;20.26;33.79;102623.72;5057588;28;45450;-71
2021/12/19 11:42:14;;;;;;;;;5.25;5.00;;;;;20.28;33.62;102619.28;5057630;28;45458;-67
2021/12/19 11:45:13;;;;;;;;;4.00;4.00;;;;;20.29;33.82;102613.09;5057558;28;45656;-66
2021/12/19 11:47:42;;;;;;;;;6.00;6.00;;;;;20.31;33.80;102611.31;5057123;28;45876;-69
2021/12/19 11:50:22;;;;;;;;;10.00;6.25;;;;;20.35;33.78;102606.81;5057706;28;45478;-69
2021/12/19 11:53:03;;;;;;;;;8.25;7.00;;;;;20.37;33.44;102602.38;5057444;28;45320;-67
2021/12/19 11:55:57;;;;;;;;;7.75;5.00;;;;;20.40;33.93;102604.91;5056961;28;45347;-70
2021/12/19 11:58:27;;;;;;;;;5.00;5.00;;;;;20.42;33.89;102597.00;5052855;28;45597;-71
2021/12/19 12:01:11;;;;;;;;;6.50;6.00;;;;;20.43;33.50;102596.09;5057234;28;45366;-70
2021/12/19 12:03:44;;;;;;;;;6.25;6.25;;;;;20.43;33.42;102593.44;5057362;28;45392;-70
2021/12/19 12:06:22;;;;;;;;;9.00;6.00;;;;;20.43;33.43;102581.13;5055934;28;46182;-69
2021/12/19 12:09:15;;;;;;;;;4.25;4.00;;;;;20.43;33.32;102580.28;5056798;28;45462;-61
2021/12/19 12:12:04;;;;;;;;;8.00;6.00;;;;;20.42;33.67;102582.03;5054986;28;45494;-71
2021/12/19 12:14:35;;;;;;;;;6.00;6.00;;;;;20.41;33.68;102572.41;5056903;28;45260;-69
2021/12/19 12:17:06;;;;;;;;;4.00;4.00;;;;;20.40;33.47;102568.03;5056602;28;47411;-72
2021/12/19 12:19:53;;;;;;;;;4.50;4.50;;;;;20.39;33.75;102577.72;5056713;28;45800;-71
2021/12/19 12:22:25;;;;;;;;;5.25;5.25;;;;;20.37;33.65;102568.16;5056639;28;45360;-70
2021/12/19 12:25:02;;;;;;;;;5.75;5.00;;;;;20.35;33.72;102562.91;5057012;28;45295;-66
2021/12/19 12:27:37;;;;;;;;;5.00;4.75;;;;;20.31;34.09;102553.38;5056782;28;45283;-63
2021/12/19 12:30:11;;;;;;;;;2.75;2.00;;;;;20.30;34.03;102546.38;5056646;28;45830;-65
2021/12/19 12:32:36;;;;;;;;;3.50;3.50;;;;;20.30;34.62;102546.38;5056891;28;45296;-66
2021/12/19 12:35:03;;;;;;;;;1.50;1.00;;;;;20.30;34.61;102545.50;5038900;28;45790;-61
2021/12/19 12:37:29;;;;;;;;;6.25;4.75;;;;;20.31;34.47;102534.06;5056464;28;45302;-63
2021/12/19 12:40:28;;;;;;;;;4.25;4.25;;;;;20.34;34.60;102537.47;5056615;28;45262;-67